Time;durP1;ratioP1;P1;durP2;ratioP2;P2;SDS_P1;SDS_P2;PMS_P1;PMS_P2;Temp;Humidity;BMP_temperature;BMP_pressure;BME280_temperature;BME280_humidity;BME280_pressure;Samples;Min_cycle;Max_cycle;Signal;HPM_P1;HPM_P2
2022/08/02 00:06:14;;;;;;;16.53;14.43;;;;;;;15.56;100.00;100661.47;4982050;23;20145;-77
2022/08/02 00:08:40;;;;;;;14.87;13.27;;;;;;;15.84;100.00;100695.53;4993226;23;20051;-79
2022/08/02 00:11:13;;;;;;;14.90;13.50;;;;;;;15.85;100.00;100683.78;4938250;23;20058;-79
2022/08/02 00:16:43;;;;;;;17.63;14.53;;;;;;;15.99;100.00;100704.31;5700666;23;20069;-78
2022/08/02 00:19:09;;;;;;;15.50;14.00;;;;;;;15.93;100.00;100680.94;4936077;29;20071;-77
2022/08/02 00:21:34;;;;;;;18.13;12.80;;;;;;;15.89;100.00;100679.66;4953322;29;20052;-78
2022/08/02 00:24:02;;;;;;;14.77;13.20;;;;;;;16.02;100.00;100693.16;4919885;29;20031;-77
2022/08/02 00:26:37;;;;;;;19.58;14.88;;;;;;;15.97;100.00;100684.88;4950966;29;20095;-78
2022/08/02 00:29:12;;;;;;;15.70;14.10;;;;;;;16.10;100.00;100695.69;4929182;29;20035;-78
2022/08/02 00:31:37;;;;;;;15.40;13.83;;;;;;;16.09;100.00;100683.28;4945569;29;20078;-78
2022/08/02 00:34:22;;;;;;;14.97;13.43;;;;;;;16.18;100.00;100695.50;4929601;29;20035;-80
2022/08/02 00:36:47;;;;;;;13.03;11.53;;;;;;;16.19;100.00;100694.50;4949721;29;20071;-79
2022/08/02 00:39:19;;;;;;;16.23;13.57;;;;;;;16.16;100.00;100688.66;4949287;29;20099;-79
2022/08/02 00:41:52;;;;;;;16.67;14.67;;;;;;;16.06;100.00;100684.50;4931342;29;20111;-77
2022/08/02 00:44:40;;;;;;;15.07;13.30;;;;;;;16.09;100.00;100677.91;4946451;29;20043;-77
2022/08/02 00:47:09;;;;;;;15.60;12.95;;;;;;;16.05;100.00;100666.72;4930875;29;20071;-75
2022/08/02 00:49:34;;;;;;;13.93;12.27;;;;;;;16.15;100.00;100679.78;4944453;29;20126;-79
2022/08/02 00:52:01;;;;;;;15.57;13.97;;;;;;;16.25;100.00;100698.22;4945425;29;20059;-78
2022/08/02 00:54:32;;;;;;;15.60;13.97;;;;;;;16.28;100.00;100695.97;4946334;29;20039;-78
2022/08/02 00:56:57;;;;;;;;;;;;;;;16.33;100.00;100704.25;4945670;29;20075;-76
2022/08/02 00:59:23;;;;;;;15.97;14.30;;;;;;;16.32;100.00;100697.22;4944017;29;19926;-77
2022/08/02 01:24:32;;;;;;;16.43;13.73;;;;;;;16.46;100.00;100710.69;4950479;23;20070;-78
2022/08/02 01:27:11;;;;;;;14.47;12.40;;;;;;;16.48;100.00;100714.00;4910715;29;20051;-78
2022/08/02 01:29:38;;;;;;;;;;;;;;;16.48;100.00;100712.16;4944457;29;20055;-77
2022/08/02 01:32:12;;;;;;;14.10;12.52;;;;;;;16.39;100.00;100695.38;4927693;29;19943;-79
2022/08/02 01:34:43;;;;;;;13.23;11.32;;;;;;;16.49;100.00;100711.13;4943447;29;20035;-79
2022/08/02 01:37:20;;;;;;;12.65;11.43;;;;;;;16.49;100.00;100716.50;4924771;29;20130;-78
2022/08/02 01:39:50;;;;;;;12.13;11.02;;;;;;;16.45;100.00;100704.47;4941427;29;20118;-78
2022/08/02 01:42:17;;;;;;;13.90;12.50;;;;;;;16.50;100.00;100711.97;4941497;29;20092;-78
2022/08/02 01:44:44;;;;;;;12.90;11.20;;;;;;;16.56;100.00;100711.16;4944467;29;20035;-75
2022/08/02 01:47:29;;;;;;;12.55;11.40;;;;;;;16.56;100.00;100711.16;4942355;29;20143;-79
2022/08/02 01:49:57;;;;;;;13.70;12.50;;;;;;;16.53;100.00;100707.00;4941915;29;20492;-79
2022/08/02 01:52:27;;;;;;;16.33;13.07;;;;;;;16.57;100.00;100712.81;4942694;29;20388;-78
2022/08/02 01:55:01;;;;;;;15.30;13.73;;;;;;;16.57;100.00;100702.88;4943294;29;20399;-78
2022/08/02 01:57:35;;;;;;;14.23;12.83;;;;;;;16.55;100.00;100694.19;4944165;29;20044;-77
2022/08/02 02:00:03;;;;;;;14.07;12.73;;;;;;;16.60;100.00;100704.31;4912849;29;20051;-80
2022/08/02 02:02:30;;;;;;;13.97;12.73;;;;;;;16.62;100.00;100707.63;4945928;29;20039;-77
2022/08/02 02:04:57;;;;;;;15.40;13.27;;;;;;;16.62;100.00;100705.78;4945176;29;20047;-80
2022/08/02 02:07:23;;;;;;;17.08;13.98;;;;;;;16.63;100.00;100707.44;4943314;29;20074;-77
2022/08/02 02:09:50;;;;;;;14.53;12.73;;;;;;;16.63;100.00;100703.91;4925838;29;20480;-77
2022/08/02 02:12:18;;;;;;;14.85;12.25;;;;;;;16.64;100.00;100706.41;4944684;29;20043;-78
2022/08/02 02:14:43;;;;;;;12.27;11.18;;;;;;;16.63;100.00;100695.84;4946969;29;20031;-77
2022/08/02 02:17:11;;;;;;;11.77;10.57;;;;;;;16.73;100.00;100701.69;4945263;29;20416;-79
2022/08/02 02:19:38;;;;;;;13.43;12.00;;;;;;;16.72;100.00;100700.03;4943707;29;20123;-79
2022/08/02 02:22:05;;;;;;;11.52;9.85;;;;;;;16.73;100.00;100704.38;4925866;29;20171;-78
2022/08/02 02:24:34;;;;;;;14.13;10.25;;;;;;;16.75;100.00;100702.31;4942186;29;20103;-78
2022/08/02 02:27:01;;;;;;;12.43;10.73;;;;;;;16.74;100.00;100714.09;4940398;29;20043;-79
2022/08/02 02:29:30;;;;;;;14.38;10.35;;;;;;;16.78;100.00;100709.16;4944384;29;20032;-77
2022/08/02 02:31:58;;;;;;;10.60;9.45;;;;;;;16.76;100.00;100706.66;4942677;29;20399;-80
2022/08/02 02:34:33;;;;;;;12.73;11.43;;;;;;;16.77;100.00;100705.66;4939205;29;20032;-80
2022/08/02 02:37:03;;;;;;;11.32;9.93;;;;;;;16.82;100.00;100711.22;4942313;29;20483;-80
2022/08/02 02:39:31;;;;;;;11.15;9.60;;;;;;;16.83;100.00;100709.38;4940605;29;20032;-78
2022/08/02 02:42:01;;;;;;;11.13;9.93;;;;;;;16.86;100.00;100711.66;4950000;28;20035;-78
2022/08/02 02:44:29;;;;;;;10.82;9.85;;;;;;;16.86;100.00;100707.09;4960061;28;20022;-77
2022/08/02 02:46:55;;;;;;;10.90;9.80;;;;;;;16.90;100.00;100711.03;4960138;28;20039;-77
2022/08/02 02:49:24;;;;;;;13.15;8.13;;;;;;;16.89;100.00;100705.84;4957912;28;20047;-78
2022/08/02 02:51:50;;;;;;;9.35;8.40;;;;;;;16.88;100.00;100707.72;4956426;29;20121;-78
2022/08/02 02:54:17;;;;;;;9.00;8.20;;;;;;;16.92;100.00;100711.66;4954414;29;20037;-77
2022/08/02 02:56:44;;;;;;;9.70;8.48;;;;;;;16.92;100.00;100710.81;4943818;29;20106;-78
2022/08/02 02:59:13;;;;;;;10.30;9.30;;;;;;;16.95;100.00;100716.63;4945731;29;20095;-78
2022/08/02 03:01:39;;;;;;;9.70;8.73;;;;;;;16.96;100.00;100704.81;4945193;29;20102;-77
2022/08/02 03:04:08;;;;;;;9.02;8.07;;;;;;;16.99;100.00;100712.47;4941141;29;20044;-78
2022/08/02 03:06:37;;;;;;;;;;;;;;;17.04;100.00;100715.38;4941735;29;20047;-77
2022/08/02 03:09:07;;;;;;;9.10;8.30;;;;;;;17.02;100.00;100717.44;4944573;29;19929;-79
2022/08/02 03:11:34;;;;;;;8.10;7.35;;;;;;;17.03;100.00;100723.66;4942191;29;20130;-77
2022/08/02 03:14:02;;;;;;;9.48;7.32;;;;;;;17.00;100.00;100714.13;4945869;29;20069;-78
2022/08/02 03:16:28;;;;;;;8.98;8.15;;;;;;;17.02;100.00;100714.75;4929281;29;20050;-77
2022/08/02 03:18:56;;;;;;;9.20;7.60;;;;;;;16.95;100.00;100703.16;4949946;29;20040;-75
2022/08/02 03:21:22;;;;;;;7.60;6.80;;;;;;;17.02;100.00;100717.44;4938780;29;20043;-78
2022/08/02 03:23:48;;;;;;;10.07;7.68;;;;;;;17.06;100.00;100717.88;4959644;28;20047;-78
2022/08/02 03:26:14;;;;;;;7.65;6.85;;;;;;;17.07;100.00;100718.72;4960013;28;20031;-78
2022/08/02 03:28:40;;;;;;;7.32;6.60;;;;;;;17.09;100.00;100722.03;4943420;28;20063;-77
2022/08/02 03:31:06;;;;;;;8.38;7.00;;;;;;;17.09;100.00;100725.53;4959735;28;20078;-78
2022/08/02 03:33:32;;;;;;;8.65;5.80;;;;;;;17.10;100.00;100721.00;4955470;28;20042;-78
2022/08/02 03:36:04;;;;;;;7.80;6.00;;;;;;;17.08;100.00;100720.38;4941036;29;20027;-77
2022/08/02 03:38:32;;;;;;;8.82;6.32;;;;;;;17.07;100.00;100724.94;4953284;28;20154;-76
2022/08/02 03:41:00;;;;;;;7.35;6.38;;;;;;;17.10;100.00;100724.50;4942760;29;20032;-77
2022/08/02 03:43:27;;;;;;;14.57;7.15;;;;;;;17.12;100.00;100721.63;4959539;28;20051;-77
2022/08/02 03:45:53;;;;;;;12.60;7.45;;;;;;;17.14;100.00;100731.13;4950244;29;20075;-79
2022/08/02 03:48:19;;;;;;;9.77;7.28;;;;;;;17.13;100.00;100725.97;4943578;29;20039;-77
2022/08/02 03:50:47;;;;;;;10.13;7.93;;;;;;;17.12;100.00;100724.31;4944490;29;20028;-80
2022/08/02 03:53:15;;;;;;;8.50;7.20;;;;;;;17.13;100.00;100737.56;4927739;29;20035;-78
2022/08/02 03:55:40;;;;;;;7.97;7.20;;;;;;;17.12;100.00;100729.69;4943685;29;20043;-78
2022/08/02 03:58:24;;;;;;;9.02;6.70;;;;;;;17.18;100.00;100736.94;4943656;29;20036;-78
2022/08/02 04:00:57;;;;;;;8.38;6.80;;;;;;;17.19;100.00;100734.03;4927281;29;20036;-80
2022/08/02 04:03:23;;;;;;;8.27;7.20;;;;;;;17.17;100.00;100735.28;4945508;29;20108;-78
2022/08/02 04:06:09;;;;;;;8.30;6.50;;;;;;;17.17;100.00;100736.09;4930832;29;20467;-77
2022/08/02 04:08:35;;;;;;;10.40;6.32;;;;;;;17.19;100.00;100739.41;4928555;29;20150;-77
2022/08/02 04:13:45;;;;;;;6.63;4.97;;;;;;;17.19;100.00;100743.97;4948147;29;20408;-77
2022/08/02 04:16:22;;;;;;;7.63;5.07;;;;;;;17.19;100.00;100743.97;4948365;29;20043;-78
2022/08/02 04:18:56;;;;;;;6.68;5.43;;;;;;;17.16;100.00;100744.38;4948309;29;20044;-79
2022/08/02 04:21:26;;;;;;;10.77;5.68;;;;;;;17.21;100.00;100755.34;4948373;29;20032;-78
2022/08/02 04:23:52;;;;;;;6.97;4.70;;;;;;;17.21;100.00;100755.34;4947615;29;20173;-79
2022/08/02 04:26:19;;;;;;;6.35;5.13;;;;;;;17.22;100.00;100757.84;4947991;29;20048;-79
2022/08/02 04:29:11;;;;;;;6.50;4.10;;;;;;;17.23;100.00;100755.97;4948622;29;20089;-78
2022/08/02 04:31:38;;;;;;;4.80;3.92;;;;;;;17.24;100.00;100754.94;4929587;29;20051;-78
2022/08/02 04:34:04;;;;;;;5.65;4.18;;;;;;;17.28;100.00;100759.69;4947700;29;20137;-77
2022/08/02 04:36:30;;;;;;;5.57;3.35;;;;;;;17.24;100.00;100752.25;4946108;29;20035;-79
2022/08/02 04:38:56;;;;;;;5.15;3.80;;;;;;;17.32;100.00;100768.19;4946929;29;20035;-78
2022/08/02 04:41:21;;;;;;;4.68;3.50;;;;;;;17.36;100.00;100766.75;4944665;29;20070;-77
2022/08/02 04:43:47;;;;;;;3.92;2.50;;;;;;;17.36;100.00;100768.63;4943219;29;20044;-78
2022/08/02 04:46:12;;;;;;;3.60;2.97;;;;;;;17.38;100.00;100780.84;4944952;29;20054;-79
2022/08/02 04:48:38;;;;;;;2.38;2.17;;;;;;;17.38;100.00;100775.47;4941197;29;20039;-78
2022/08/02 04:51:03;;;;;;;3.92;2.67;;;;;;;17.38;100.00;100770.06;4942657;29;20069;-78
2022/08/02 04:53:29;;;;;;;4.22;2.85;;;;;;;17.44;100.00;100779.19;4942899;29;20039;-78
2022/08/02 04:55:54;;;;;;;3.05;2.75;;;;;;;17.49;100.00;100779.38;4943575;29;20043;-79
2022/08/02 04:58:20;;;;;;;4.20;2.88;;;;;;;17.55;100.00;100778.53;4943434;29;20460;-79
2022/08/02 05:00:46;;;;;;;3.92;3.30;;;;;;;17.59;100.00;100794.06;4943558;29;20042;-80
2022/08/02 05:03:13;;;;;;;3.47;3.17;;;;;;;17.60;100.00;100793.03;4943960;29;20036;-79
2022/08/02 05:05:38;;;;;;;4.93;4.43;;;;;;;17.57;100.00;100795.31;4945951;29;20039;-79
2022/08/02 05:08:04;;;;;;;5.00;4.07;;;;;;;17.60;100.00;100797.59;4944490;29;20062;-79
2022/08/02 05:10:30;;;;;;;6.22;4.40;;;;;;;17.62;100.00;100799.03;4942435;29;20039;-77
2022/08/02 05:12:55;;;;;;;5.05;4.05;;;;;;;17.65;100.00;100798.66;4942715;29;20127;-77
2022/08/02 05:15:21;;;;;;;4.57;4.18;;;;;;;17.62;100.00;100801.72;4942129;29;20102;-78
2022/08/02 05:17:47;;;;;;;4.15;3.75;;;;;;;17.61;100.00;100805.47;4942731;29;20039;-78
2022/08/02 05:20:14;;;;;;;4.93;4.43;;;;;;;17.58;100.00;100815.81;4938975;29;20492;-77
2022/08/02 05:22:40;;;;;;;5.68;4.22;;;;;;;17.57;100.00;100812.31;4940170;29;20062;-78
2022/08/02 05:25:06;;;;;;;5.03;4.38;;;;;;;17.58;100.00;100813.97;4939671;29;20043;-79
2022/08/02 05:27:32;;;;;;;4.72;4.28;;;;;;;17.61;100.00;100821.63;4938754;29;20039;-77
2022/08/02 05:29:58;;;;;;;3.78;3.40;;;;;;;17.65;100.00;100822.91;4939303;29;20050;-78
2022/08/02 05:32:24;;;;;;;4.18;3.78;;;;;;;17.72;100.00;100825.59;4941209;29;20039;-77
2022/08/02 05:34:50;;;;;;;3.45;2.72;;;;;;;17.65;100.00;100822.91;4941022;29;20147;-79
2022/08/02 05:37:16;;;;;;;4.80;2.60;;;;;;;17.64;100.00;100837.41;4942173;29;20031;-78
2022/08/02 05:39:41;;;;;;;2.67;2.08;;;;;;;17.56;100.00;100837.56;4922511;29;20118;-79
2022/08/02 05:42:07;;;;;;;3.05;2.40;;;;;;;17.59;99.57;100834.47;4938651;29;20069;-77
2022/08/02 05:44:32;;;;;;;1.90;1.60;;;;;;;17.64;98.24;100842.78;4938397;29;20039;-77
2022/08/02 05:46:58;;;;;;;2.55;1.98;;;;;;;17.64;97.12;100845.47;4937053;29;20043;-75
2022/08/02 05:49:24;;;;;;;2.10;1.90;;;;;;;17.62;97.61;100836.75;4936800;29;20035;-79
2022/08/02 05:52:07;;;;;;;2.28;1.67;;;;;;;17.63;97.26;100849.19;4936632;29;20027;-78
2022/08/02 05:54:36;;;;;;;7.00;2.08;;;;;;;17.64;97.36;100848.16;4941038;29;20098;-77
2022/08/02 05:57:30;;;;;;;5.25;3.08;;;;;;;17.59;97.96;100844.41;4947803;29;20419;-78
2022/08/02 06:00:08;;;;;;;6.65;5.28;;;;;;;17.60;97.93;100846.06;4932208;29;20043;-77
2022/08/02 06:03:03;;;;;;;2.92;2.45;;;;;;;17.60;97.41;100836.13;4937798;29;20047;-78
2022/08/02 06:05:38;;;;;;;3.50;2.03;;;;;;;17.64;97.89;100850.03;4921168;29;20035;-78
2022/08/02 06:08:08;;;;;;;2.63;2.15;;;;;;;17.60;97.89;100848.75;4936516;29;20083;-78
2022/08/02 06:10:35;;;;;;;2.53;2.25;;;;;;;17.62;97.30;100850.22;4935749;29;20045;-79
2022/08/02 06:13:03;;;;;;;2.75;2.50;;;;;;;17.60;97.12;100860.38;4936214;29;20082;-79
2022/08/02 06:15:29;;;;;;;;;;;;;;;17.63;97.70;100857.25;4920123;29;20031;-79
2022/08/02 06:17:56;;;;;;;3.08;2.78;;;;;;;17.55;97.24;100862.03;4936569;29;19926;-77
2022/08/02 06:20:23;;;;;;;4.10;3.20;;;;;;;17.50;97.89;100857.25;4939379;29;20039;-78
2022/08/02 06:22:51;;;;;;;2.55;2.33;;;;;;;17.56;97.63;100869.06;4942184;29;20063;-79
2022/08/02 06:25:18;;;;;;;3.42;3.03;;;;;;;17.51;97.34;100867.00;4942733;29;20043;-82
2022/08/02 06:27:45;;;;;;;3.60;3.30;;;;;;;17.44;96.98;100849.19;4926551;29;20046;-77
2022/08/02 06:30:11;;;;;;;4.53;3.03;;;;;;;17.58;97.56;100861.59;4939199;29;20059;-80
2022/08/02 06:32:36;;;;;;;4.60;3.58;;;;;;;17.54;96.71;100850.41;4922631;29;20031;-80
2022/08/02 06:35:04;;;;;;;4.20;3.28;;;;;;;17.67;96.86;100867.66;4930814;29;20098;-81
2022/08/02 06:37:44;;;;;;;4.38;3.97;;;;;;;17.71;96.57;100866.22;4938779;29;20032;-83
2022/08/02 06:40:20;;;;;;;4.35;2.92;;;;;;;17.77;97.00;100865.38;4936450;29;20507;-80
2022/08/02 06:43:16;;;;;;;6.85;4.40;;;;;;;17.87;96.06;100865.78;4936174;29;20462;-79
2022/08/02 06:45:42;;;;;;;7.78;3.35;;;;;;;17.89;95.98;100858.31;4936110;29;20031;-79
2022/08/02 06:48:09;;;;;;;4.30;3.47;;;;;;;17.91;96.16;100861.63;4936260;29;20126;-77
2022/08/02 06:50:37;;;;;;;4.85;3.00;;;;;;;17.96;95.05;100864.56;4935291;29;20404;-78
2022/08/02 06:53:04;;;;;;;;;;;;;;;18.04;95.16;100869.72;4935934;29;20070;-76
2022/08/02 06:55:31;;;;;;;4.05;3.17;;;;;;;17.97;94.60;100850.06;4935630;29;19966;-78
2022/08/02 06:57:57;;;;;;;7.68;4.22;;;;;;;18.26;94.72;100871.16;4935482;29;20045;-77
2022/08/02 07:00:23;;;;;;;5.43;4.07;;;;;;;18.39;93.87;100872.16;4935769;29;20068;-77
2022/08/02 07:02:49;;;;;;;5.85;3.50;;;;;;;18.54;94.29;100875.44;4935980;29;20623;-76
2022/08/02 07:05:36;;;;;;;4.20;3.80;;;;;;;18.55;92.34;100879.81;4935164;29;20040;-81
2022/08/02 07:08:02;;;;;;;4.50;3.78;;;;;;;18.56;92.97;100876.91;4918944;29;20039;-73
2022/08/02 07:10:27;;;;;;;4.28;3.55;;;;;;;18.58;92.14;100876.69;4935625;29;20040;-77
2022/08/02 07:12:53;;;;;;;3.97;3.28;;;;;;;18.51;92.50;100883.97;4935460;29;20042;-77
2022/08/02 07:15:18;;;;;;;5.60;3.97;;;;;;;18.41;92.29;100883.56;4936218;29;20447;-77
2022/08/02 07:17:44;;;;;;;6.22;3.33;;;;;;;18.33;93.19;100881.09;4936330;29;20059;-78
2022/08/02 07:20:10;;;;;;;3.95;2.90;;;;;;;18.30;93.85;100882.34;4935763;29;20099;-78
2022/08/02 07:22:36;;;;;;;3.83;3.40;;;;;;;18.36;95.03;100891.47;4935625;29;20059;-78
2022/08/02 07:25:02;;;;;;;4.30;3.90;;;;;;;18.14;94.15;100889.00;4935432;29;20074;-78
2022/08/02 07:27:29;;;;;;;4.97;3.00;;;;;;;17.99;94.48;100890.25;4934566;29;20531;-76
2022/08/02 07:29:55;;;;;;;5.15;3.50;;;;;;;17.90;94.79;100886.94;4935702;29;20123;-76
2022/08/02 07:32:23;;;;;;;8.07;3.28;;;;;;;17.91;95.55;100893.97;4936133;29;20039;-78
2022/08/02 07:34:49;;;;;;;3.90;3.53;;;;;;;18.00;95.14;100892.75;4936193;29;20039;-76
2022/08/02 07:37:15;;;;;;;3.90;3.38;;;;;;;18.09;94.21;100886.09;4937130;29;20043;-76
2022/08/02 07:39:40;;;;;;;5.53;3.55;;;;;;;18.15;93.89;100893.34;4935601;29;20046;-77
2022/08/02 07:42:06;;;;;;;3.53;2.83;;;;;;;18.29;93.61;100887.94;4935668;29;20403;-73
2022/08/02 07:44:33;;;;;;;5.38;3.53;;;;;;;18.49;93.13;100888.72;4943012;29;20052;-77
2022/08/02 07:47:03;;;;;;;4.18;3.03;;;;;;;18.61;91.44;100899.69;4931001;29;20035;-76
2022/08/02 07:49:29;;;;;;;4.65;3.13;;;;;;;18.39;91.83;100899.13;4945073;29;20044;-74
2022/08/02 07:51:55;;;;;;;5.63;2.45;;;;;;;18.37;92.49;100904.72;4944784;29;20040;-76
2022/08/02 07:54:21;;;;;;;7.88;4.25;;;;;;;18.30;92.69;100909.31;4938020;29;20043;-75
2022/08/02 07:56:47;;;;;;;4.80;2.90;;;;;;;18.29;92.94;100904.13;4921151;29;20401;-74
2022/08/02 07:59:13;;;;;;;5.38;2.75;;;;;;;18.28;92.23;100914.09;4938206;29;20042;-76
2022/08/02 08:01:38;;;;;;;3.38;2.83;;;;;;;18.12;92.06;100901.03;4939332;29;20042;-76
2022/08/02 08:04:04;;;;;;;5.53;3.25;;;;;;;18.20;92.11;100916.97;4921397;29;20040;-75
2022/08/02 08:06:30;;;;;;;6.22;3.03;;;;;;;18.20;92.47;100919.66;4938608;29;20047;-75
2022/08/02 08:08:57;;;;;;;5.40;2.75;;;;;;;18.12;92.12;100907.25;4905433;29;20522;-74
2022/08/02 08:11:23;;;;;;;2.78;2.25;;;;;;;18.23;92.43;100919.28;4938213;29;20072;-78
2022/08/02 08:13:48;;;;;;;7.97;3.15;;;;;;;18.18;92.22;100932.53;4938270;29;20392;-76
2022/08/02 08:16:14;;;;;;;3.38;2.58;;;;;;;18.03;93.32;100932.75;4938483;29;20043;-74
2022/08/02 08:18:39;;;;;;;3.60;3.25;;;;;;;18.13;93.17;100932.31;4937925;29;20562;-77
2022/08/02 08:21:05;;;;;;;8.20;2.50;;;;;;;18.23;93.39;100936.28;4938305;29;20046;-77
2022/08/02 08:23:31;;;;;;;3.35;2.70;;;;;;;18.38;92.70;100943.31;4893830;29;1348422;-77
2022/08/02 08:26:03;;;;;;;5.13;3.20;;;;;;;18.41;92.43;100951.81;4941344;29;20051;-76
2022/08/02 08:28:30;;;;;;;4.15;3.05;;;;;;;18.41;92.14;100950.97;4941661;29;20039;-77
2022/08/02 08:30:56;;;;;;;5.47;4.85;;;;;;;18.34;91.95;100944.75;4940277;29;20068;-77
2022/08/02 08:33:22;;;;;;;4.13;2.88;;;;;;;18.32;91.77;100949.53;4938768;29;20502;-76
2022/08/02 08:35:47;;;;;;;3.13;2.50;;;;;;;18.34;91.82;100947.47;4938849;29;20040;-79
2022/08/02 08:38:14;;;;;;;4.40;3.58;;;;;;;18.33;92.07;100952.03;4940417;29;20043;-76
2022/08/02 08:40:41;;;;;;;4.32;2.97;;;;;;;18.34;92.23;100958.25;4940124;29;20043;-77
2022/08/02 08:43:35;;;;;;;3.50;3.00;;;;;;;18.33;92.09;100952.03;4939496;29;20388;-75
2022/08/02 08:46:01;;;;;;;6.85;3.03;;;;;;;18.40;92.24;100968.19;4906450;29;20060;-78
2022/08/02 08:48:31;;;;;;;7.40;2.83;;;;;;;18.34;91.93;100963.63;4939219;29;20040;-76
2022/08/02 08:51:06;;;;;;;4.25;2.40;;;;;;;18.34;92.18;100963.63;4942005;29;20041;-78
2022/08/02 08:53:39;;;;;;;6.20;2.80;;;;;;;18.49;92.46;100973.16;4942033;29;20048;-77
2022/08/02 08:56:05;;;;;;;4.60;2.90;;;;;;;18.58;91.70;100976.47;4923445;29;20042;-77
2022/08/02 08:58:30;;;;;;;4.45;2.50;;;;;;;18.65;91.02;100974.63;4923448;29;20031;-77
2022/08/02 09:01:00;;;;;;;23.00;3.50;;;;;;;18.58;90.63;100979.19;4938428;29;20584;-76
2022/08/02 09:03:30;;;;;;;2.55;1.85;;;;;;;18.37;90.62;100963.22;4905741;29;20043;-79
2022/08/02 09:05:59;;;;;;;5.38;3.00;;;;;;;18.46;91.45;100988.91;4905228;29;20091;-76
2022/08/02 09:08:31;;;;;;;3.03;2.50;;;;;;;18.37;90.91;100979.41;4919750;29;20044;-75
2022/08/02 09:15:34;;;;;;;2.70;1.80;;;;;;;18.51;90.58;100997.25;4858517;29;20068;-75
2022/08/02 09:18:07;;;;;;;1.83;1.60;;;;;;;18.24;90.74;100977.53;4857250;29;20049;-75
2022/08/02 09:20:58;;;;;;;4.28;2.20;;;;;;;18.14;92.07;100979.81;4843688;29;20041;-74
2022/08/02 09:24:22;;;;;;;5.38;2.63;;;;;;;18.38;92.40;101013.41;4843108;29;20076;-75
2022/08/02 09:27:15;;;;;;;3.78;2.13;;;;;;;18.47;92.62;101023.78;4860240;29;20619;-75
2022/08/02 09:29:49;;;;;;;2.50;1.85;;;;;;;18.29;91.39;100993.09;4861013;29;20086;-76
2022/08/02 09:32:44;;;;;;;3.25;1.50;;;;;;;18.64;90.92;101028.78;4843754;29;20055;-77
2022/08/02 09:36:05;;;;;;;2.45;1.52;;;;;;;19.00;89.43;101039.09;4852871;29;20437;-77
2022/08/02 09:42:14;;;;;;;2.08;1.65;;;;;;;19.45;86.22;101011.13;4823255;29;20060;-73
2022/08/02 09:44:52;;;;;;;2.45;1.67;;;;;;;19.62;85.56;101021.47;4822502;29;20050;-76
2022/08/02 09:47:17;;;;;;;2.58;1.15;;;;;;;19.59;85.96;101043.50;4827356;29;20046;-74
2022/08/02 09:49:46;;;;;;;5.95;1.42;;;;;;;19.47;85.47;101016.31;4828527;29;20084;-77
2022/08/02 09:53:02;;;;;;;2.08;1.30;;;;;;;19.59;85.80;101043.50;4866720;29;20048;-78
2022/08/02 09:55:28;;;;;;;3.67;1.30;;;;;;;19.60;85.69;101037.06;4865173;29;20045;-75
2022/08/02 09:57:53;;;;;;;4.63;1.40;;;;;;;19.64;85.05;101036.41;4865911;29;20565;-79
2022/08/02 10:00:20;;;;;;;1.55;1.20;;;;;;;19.57;84.84;101032.09;4880511;29;20049;-79
2022/08/02 10:03:05;;;;;;;3.85;1.42;;;;;;;19.56;85.56;101049.34;4880341;29;20044;-78
2022/08/02 10:05:45;;;;;;;12.43;1.73;;;;;;;19.41;85.70;101058.53;4880429;29;20048;-76
2022/08/02 10:08:11;;;;;;;2.55;1.40;;;;;;;19.30;86.56;101047.53;4881470;29;20047;-77
2022/08/02 10:10:38;;;;;;;2.20;1.20;;;;;;;19.33;86.88;101056.03;4920534;29;20079;-77
2022/08/02 10:13:04;;;;;;;3.00;1.50;;;;;;;19.29;87.04;101033.19;4959531;28;20027;-78
2022/08/02 10:15:45;;;;;;;2.58;1.48;;;;;;;19.48;86.58;101032.31;4941409;29;20102;-77
2022/08/02 10:18:11;;;;;;;1.83;1.15;;;;;;;19.70;84.73;101051.78;4955351;29;20044;-74
2022/08/02 10:21:00;;;;;;;4.15;0.88;;;;;;;19.83;84.98;101042.75;4948959;29;20087;-75
2022/08/02 10:23:32;;;;;;;9.02;3.53;;;;;;;19.87;84.50;101062.06;4926332;29;20138;-75
2022/08/02 10:25:59;;;;;;;2.60;1.20;;;;;;;19.82;83.73;101070.84;4937134;29;20081;-74
2022/08/02 10:28:32;;;;;;;1.55;1.10;;;;;;;19.53;83.63;101072.22;4937454;29;20035;-75
2022/08/02 10:31:05;;;;;;;1.95;1.30;;;;;;;19.22;84.99;101078.31;4919571;29;20039;-75
2022/08/02 10:33:35;;;;;;;3.55;1.30;;;;;;;19.14;86.15;101081.25;4936552;29;20078;-75
2022/08/02 10:36:05;;;;;;;2.15;1.00;;;;;;;18.98;87.28;101076.28;4937008;29;20091;-76
2022/08/02 10:38:32;;;;;;;2.25;1.27;;;;;;;18.91;87.56;101078.16;4937229;29;20040;-76
2022/08/02 10:40:58;;;;;;;2.10;0.82;;;;;;;19.01;87.21;101086.66;4935710;29;20578;-75
2022/08/02 10:43:36;;;;;;;1.20;0.90;;;;;;;19.22;86.72;101096.38;4950333;29;20032;-76
2022/08/02 10:46:23;;;;;;;1.85;1.00;;;;;;;19.38;86.64;101106.75;4933967;29;20050;-73
2022/08/02 10:49:07;;;;;;;2.50;0.98;;;;;;;19.08;85.74;101057.75;4942179;29;20444;-73
2022/08/02 10:51:51;;;;;;;2.08;1.05;;;;;;;19.34;85.94;101109.00;4937184;29;20043;-73
2022/08/02 10:54:20;;;;;;;2.25;1.15;;;;;;;19.21;87.17;101106.34;4941494;29;20148;-74
2022/08/02 10:56:50;;;;;;;1.77;0.80;;;;;;;19.28;86.28;101106.31;4936411;29;20087;-74
2022/08/02 10:59:42;;;;;;;2.63;0.95;;;;;;;19.46;84.96;101123.53;4936097;29;20452;-75
2022/08/02 11:02:08;;;;;;;1.30;1.10;;;;;;;19.41;85.10;101117.13;4916746;29;20492;-75
2022/08/02 11:04:36;;;;;;;3.55;1.13;;;;;;;19.59;85.26;101119.16;4936739;29;20031;-73
2022/08/02 11:07:39;;;;;;;2.42;1.10;;;;;;;19.79;83.84;101119.91;4936965;29;20047;-74
2022/08/02 11:10:32;;;;;;;1.73;0.80;;;;;;;19.83;83.49;101129.25;4936092;29;20039;-77
2022/08/02 11:13:13;;;;;;;2.65;1.02;;;;;;;19.79;83.21;101126.16;4935988;29;20039;-75
2022/08/02 11:16:03;;;;;;;4.00;2.80;;;;;;;19.80;83.33;101129.69;4936088;29;20399;-75
2022/08/02 11:18:50;;;;;;;3.08;0.93;;;;;;;19.92;83.77;101127.94;4935726;29;20059;-75
2022/08/02 11:21:33;;;;;;;1.30;1.10;;;;;;;19.95;83.36;101129.38;4935681;29;20077;-76
2022/08/02 11:24:29;;;;;;;1.58;1.00;;;;;;;20.18;82.41;101132.41;4935448;29;20059;-76
2022/08/02 11:26:56;;;;;;;3.22;1.20;;;;;;;20.27;81.29;101135.69;4923735;29;20048;-76
2022/08/02 11:29:41;;;;;;;1.50;1.15;;;;;;;20.33;81.76;101137.53;4934866;29;20054;-74
2022/08/02 11:32:13;;;;;;;1.73;1.35;;;;;;;20.29;80.74;101139.84;4937973;29;20035;-74
2022/08/02 11:34:41;;;;;;;6.97;1.33;;;;;;;20.42;81.64;101136.25;4935310;29;20099;-75
2022/08/02 11:37:09;;;;;;;3.15;1.05;;;;;;;20.26;81.33;101147.56;4918468;29;20070;-73
2022/08/02 11:39:34;;;;;;;1.80;1.08;;;;;;;20.18;81.70;101145.09;4934712;29;20512;-75
2022/08/02 11:42:00;;;;;;;1.33;0.70;;;;;;;20.28;80.83;101149.00;4935064;29;20066;-76
2022/08/02 11:44:27;;;;;;;2.15;0.82;;;;;;;20.42;79.89;101156.00;4917690;29;20035;-76
2022/08/02 11:46:53;;;;;;;1.77;1.00;;;;;;;20.30;79.38;101132.56;4935102;29;20043;-77
2022/08/02 11:49:19;;;;;;;2.08;1.30;;;;;;;20.28;80.29;101165.22;4902002;29;20107;-75
2022/08/02 11:52:11;;;;;;;0.70;0.40;;;;;;;19.96;81.75;101167.06;4934791;29;20489;-75
2022/08/02 11:54:40;;;;;;;1.48;0.80;;;;;;;19.59;82.71;101167.78;4931976;29;20043;-74
2022/08/02 11:57:19;;;;;;;1.58;0.75;;;;;;;19.43;84.48;101185.25;4934831;29;20444;-75
2022/08/02 12:00:13;;;;;;;1.23;0.77;;;;;;;19.35;85.24;101188.97;4935659;29;20043;-74
2022/08/02 12:02:46;;;;;;;1.60;0.95;;;;;;;19.17;86.02;101189.63;4935484;29;20036;-74
2022/08/02 12:05:17;;;;;;;5.95;1.20;;;;;;;19.17;86.79;101196.91;4918158;29;20043;-74
2022/08/02 12:07:54;;;;;;;1.58;1.10;;;;;;;19.10;87.40;101206.88;4935380;29;20035;-75
2022/08/02 12:10:24;;;;;;;2.10;1.10;;;;;;;19.03;87.50;101200.63;4918497;29;20035;-80
2022/08/02 12:12:50;;;;;;;3.55;1.40;;;;;;;19.04;87.85;101188.78;4934799;29;20134;-73
2022/08/02 12:15:29;;;;;;;2.20;1.45;;;;;;;18.98;88.16;101192.34;4934576;29;20411;-73
2022/08/02 12:20:42;;;;;;;7.93;3.97;;;;;;;18.95;88.81;101209.78;4934063;29;20211;-74